sensor_id;sensor_type;location;lat;lon;timestamp;P1;durP1;ratioP1;P2;durP2;ratioP2
36291;SDS011;22327;51.208;6.418;2022-10-15T00:00:03;29.50;;;18.27;;
36291;SDS011;22327;51.208;6.418;2022-10-15T00:02:29;31.15;;;17.83;;
36291;SDS011;22327;51.208;6.418;2022-10-15T00:04:54;30.20;;;18.92;;
36291;SDS011;22327;51.208;6.418;2022-10-15T00:07:21;33.60;;;18.30;;
36291;SDS011;22327;51.208;6.418;2022-10-15T00:09:47;33.70;;;19.40;;
36291;SDS011;22327;51.208;6.418;2022-10-15T00:12:12;32.17;;;19.13;;
36291;SDS011;22327;51.208;6.418;2022-10-15T00:14:38;30.83;;;18.60;;
36291;SDS011;22327;51.208;6.418;2022-10-15T00:17:03;35.83;;;20.25;;
36291;SDS011;22327;51.208;6.418;2022-10-15T00:19:29;40.72;;;22.63;;
36291;SDS011;22327;51.208;6.418;2022-10-15T00:21:54;39.45;;;22.38;;
36291;SDS011;22327;51.208;6.418;2022-10-15T00:24:20;34.55;;;21.92;;
36291;SDS011;22327;51.208;6.418;2022-10-15T00:26:45;37.80;;;21.60;;
36291;SDS011;22327;51.208;6.418;2022-10-15T00:29:11;38.15;;;21.27;;
36291;SDS011;22327;51.208;6.418;2022-10-15T00:31:37;37.60;;;21.55;;
36291;SDS011;22327;51.208;6.418;2022-10-15T00:34:02;35.45;;;19.77;;
36291;SDS011;22327;51.208;6.418;2022-10-15T00:36:29;35.03;;;19.85;;
36291;SDS011;22327;51.208;6.418;2022-10-15T00:38:56;34.47;;;19.85;;
36291;SDS011;22327;51.208;6.418;2022-10-15T00:41:23;39.67;;;20.98;;
36291;SDS011;22327;51.208;6.418;2022-10-15T00:43:53;39.45;;;21.60;;
36291;SDS011;22327;51.208;6.418;2022-10-15T00:48:48;37.30;;;22.13;;
36291;SDS011;22327;51.208;6.418;2022-10-15T00:51:19;43.03;;;23.08;;
36291;SDS011;22327;51.208;6.418;2022-10-15T00:53:47;48.35;;;24.65;;
36291;SDS011;22327;51.208;6.418;2022-10-15T00:56:14;43.80;;;23.42;;
36291;SDS011;22327;51.208;6.418;2022-10-15T00:58:41;39.30;;;21.83;;
36291;SDS011;22327;51.208;6.418;2022-10-15T01:01:07;45.35;;;22.05;;
36291;SDS011;22327;51.208;6.418;2022-10-15T01:03:32;41.65;;;22.80;;
36291;SDS011;22327;51.208;6.418;2022-10-15T01:05:59;44.92;;;22.45;;
36291;SDS011;22327;51.208;6.418;2022-10-15T01:08:26;43.88;;;22.70;;
36291;SDS011;22327;51.208;6.418;2022-10-15T01:13:31;47.13;;;23.55;;
36291;SDS011;22327;51.208;6.418;2022-10-15T01:16:05;44.17;;;23.65;;
36291;SDS011;22327;51.208;6.418;2022-10-15T01:18:41;48.50;;;24.40;;
36291;SDS011;22327;51.208;6.418;2022-10-15T01:21:32;50.30;;;23.90;;
36291;SDS011;22327;51.208;6.418;2022-10-15T01:32:46;48.30;;;23.90;;
36291;SDS011;22327;51.208;6.418;2022-10-15T01:40:20;49.33;;;23.48;;
36291;SDS011;22327;51.208;6.418;2022-10-15T01:42:52;50.33;;;24.25;;
36291;SDS011;22327;51.208;6.418;2022-10-15T01:45:24;50.30;;;23.55;;
36291;SDS011;22327;51.208;6.418;2022-10-15T01:47:55;45.85;;;23.02;;
36291;SDS011;22327;51.208;6.418;2022-10-15T01:50:26;50.33;;;23.27;;
36291;SDS011;22327;51.208;6.418;2022-10-15T01:52:56;48.20;;;23.45;;
36291;SDS011;22327;51.208;6.418;2022-10-15T01:55:24;48.53;;;23.95;;
36291;SDS011;22327;51.208;6.418;2022-10-15T01:57:51;47.38;;;23.17;;
36291;SDS011;22327;51.208;6.418;2022-10-15T02:00:20;49.20;;;22.83;;
36291;SDS011;22327;51.208;6.418;2022-10-15T02:02:45;45.67;;;22.48;;
36291;SDS011;22327;51.208;6.418;2022-10-15T02:05:19;48.83;;;24.02;;
36291;SDS011;22327;51.208;6.418;2022-10-15T02:07:56;45.60;;;22.38;;
36291;SDS011;22327;51.208;6.418;2022-10-15T02:21:25;49.35;;;22.67;;
36291;SDS011;22327;51.208;6.418;2022-10-15T02:24:10;44.70;;;22.88;;
36291;SDS011;22327;51.208;6.418;2022-10-15T02:26:45;45.00;;;22.53;;
36291;SDS011;22327;51.208;6.418;2022-10-15T02:29:13;49.40;;;23.67;;
36291;SDS011;22327;51.208;6.418;2022-10-15T02:31:43;50.25;;;22.35;;
36291;SDS011;22327;51.208;6.418;2022-10-15T02:34:11;44.20;;;22.35;;
36291;SDS011;22327;51.208;6.418;2022-10-15T02:36:40;45.97;;;23.25;;
36291;SDS011;22327;51.208;6.418;2022-10-15T02:39:08;43.78;;;23.00;;
36291;SDS011;22327;51.208;6.418;2022-10-15T02:41:35;44.22;;;22.33;;
36291;SDS011;22327;51.208;6.418;2022-10-15T02:44:02;44.65;;;23.38;;
36291;SDS011;22327;51.208;6.418;2022-10-15T02:46:28;38.63;;;20.77;;
36291;SDS011;22327;51.208;6.418;2022-10-15T02:48:54;43.55;;;22.95;;
36291;SDS011;22327;51.208;6.418;2022-10-15T02:51:19;45.92;;;23.00;;
36291;SDS011;22327;51.208;6.418;2022-10-15T02:53:45;38.72;;;21.23;;
36291;SDS011;22327;51.208;6.418;2022-10-15T02:56:10;44.85;;;21.88;;
36291;SDS011;22327;51.208;6.418;2022-10-15T02:58:36;44.42;;;22.80;;
36291;SDS011;22327;51.208;6.418;2022-10-15T03:01:01;43.90;;;23.25;;
36291;SDS011;22327;51.208;6.418;2022-10-15T03:03:27;44.00;;;22.02;;
36291;SDS011;22327;51.208;6.418;2022-10-15T03:05:53;41.63;;;21.65;;
36291;SDS011;22327;51.208;6.418;2022-10-15T03:08:21;41.03;;;22.00;;
36291;SDS011;22327;51.208;6.418;2022-10-15T03:10:46;42.47;;;21.90;;
36291;SDS011;22327;51.208;6.418;2022-10-15T03:13:12;41.92;;;22.95;;
36291;SDS011;22327;51.208;6.418;2022-10-15T03:15:38;39.58;;;22.02;;
36291;SDS011;22327;51.208;6.418;2022-10-15T03:18:04;41.22;;;22.27;;
36291;SDS011;22327;51.208;6.418;2022-10-15T03:20:29;43.53;;;21.80;;
36291;SDS011;22327;51.208;6.418;2022-10-15T03:22:55;40.53;;;22.00;;
36291;SDS011;22327;51.208;6.418;2022-10-15T03:25:20;42.28;;;22.48;;
36291;SDS011;22327;51.208;6.418;2022-10-15T03:27:46;42.65;;;22.30;;
36291;SDS011;22327;51.208;6.418;2022-10-15T03:30:12;43.70;;;22.85;;
36291;SDS011;22327;51.208;6.418;2022-10-15T03:32:38;47.20;;;23.20;;
36291;SDS011;22327;51.208;6.418;2022-10-15T03:35:03;45.83;;;22.33;;
36291;SDS011;22327;51.208;6.418;2022-10-15T03:37:29;46.25;;;23.50;;
36291;SDS011;22327;51.208;6.418;2022-10-15T03:39:55;46.25;;;23.42;;
36291;SDS011;22327;51.208;6.418;2022-10-15T03:42:21;45.00;;;23.15;;
36291;SDS011;22327;51.208;6.418;2022-10-15T03:44:46;44.75;;;23.20;;
36291;SDS011;22327;51.208;6.418;2022-10-15T03:47:12;44.97;;;23.60;;
36291;SDS011;22327;51.208;6.418;2022-10-15T03:49:37;44.95;;;23.02;;
36291;SDS011;22327;51.208;6.418;2022-10-15T03:52:03;44.40;;;22.27;;
36291;SDS011;22327;51.208;6.418;2022-10-15T03:54:29;44.13;;;22.70;;
36291;SDS011;22327;51.208;6.418;2022-10-15T03:56:54;46.83;;;22.65;;
36291;SDS011;22327;51.208;6.418;2022-10-15T03:59:20;43.80;;;22.08;;
36291;SDS011;22327;51.208;6.418;2022-10-15T04:01:46;48.05;;;23.63;;
36291;SDS011;22327;51.208;6.418;2022-10-15T04:04:11;45.75;;;22.65;;
36291;SDS011;22327;51.208;6.418;2022-10-15T04:06:37;42.00;;;22.42;;
36291;SDS011;22327;51.208;6.418;2022-10-15T04:09:03;41.67;;;22.65;;
36291;SDS011;22327;51.208;6.418;2022-10-15T04:11:29;43.97;;;21.98;;
36291;SDS011;22327;51.208;6.418;2022-10-15T04:13:54;42.00;;;20.98;;
36291;SDS011;22327;51.208;6.418;2022-10-15T04:16:20;43.97;;;23.15;;
36291;SDS011;22327;51.208;6.418;2022-10-15T04:18:45;46.80;;;22.92;;
36291;SDS011;22327;51.208;6.418;2022-10-15T04:21:11;48.08;;;23.38;;
36291;SDS011;22327;51.208;6.418;2022-10-15T04:23:36;47.78;;;23.42;;
36291;SDS011;22327;51.208;6.418;2022-10-15T04:26:02;44.55;;;22.75;;
36291;SDS011;22327;51.208;6.418;2022-10-15T04:28:27;45.67;;;23.27;;
36291;SDS011;22327;51.208;6.418;2022-10-15T04:30:57;46.45;;;23.20;;
36291;SDS011;22327;51.208;6.418;2022-10-15T04:33:24;48.45;;;23.30;;
36291;SDS011;22327;51.208;6.418;2022-10-15T04:35:59;50.17;;;22.95;;
36291;SDS011;22327;51.208;6.418;2022-10-15T04:38:30;51.53;;;23.15;;
36291;SDS011;22327;51.208;6.418;2022-10-15T04:40:59;44.63;;;23.05;;
36291;SDS011;22327;51.208;6.418;2022-10-15T04:43:26;48.08;;;22.85;;
36291;SDS011;22327;51.208;6.418;2022-10-15T04:45:54;45.40;;;21.45;;
36291;SDS011;22327;51.208;6.418;2022-10-15T04:48:21;41.38;;;21.67;;
36291;SDS011;22327;51.208;6.418;2022-10-15T04:50:46;48.17;;;22.42;;
36291;SDS011;22327;51.208;6.418;2022-10-15T04:53:12;45.33;;;21.33;;
36291;SDS011;22327;51.208;6.418;2022-10-15T04:55:37;47.20;;;22.75;;
36291;SDS011;22327;51.208;6.418;2022-10-15T04:58:03;45.10;;;21.75;;
36291;SDS011;22327;51.208;6.418;2022-10-15T05:00:28;48.15;;;21.83;;
36291;SDS011;22327;51.208;6.418;2022-10-15T05:02:54;44.08;;;21.75;;
36291;SDS011;22327;51.208;6.418;2022-10-15T05:05:19;42.75;;;20.58;;
36291;SDS011;22327;51.208;6.418;2022-10-15T05:07:45;44.60;;;21.33;;
36291;SDS011;22327;51.208;6.418;2022-10-15T05:10:10;40.45;;;20.88;;
36291;SDS011;22327;51.208;6.418;2022-10-15T05:12:36;42.03;;;20.50;;
36291;SDS011;22327;51.208;6.418;2022-10-15T05:15:01;42.95;;;20.42;;
36291;SDS011;22327;51.208;6.418;2022-10-15T05:17:28;44.75;;;21.88;;
36291;SDS011;22327;51.208;6.418;2022-10-15T05:19:54;47.78;;;21.55;;
36291;SDS011;22327;51.208;6.418;2022-10-15T05:22:20;41.03;;;20.88;;
36291;SDS011;22327;51.208;6.418;2022-10-15T05:24:45;51.05;;;22.50;;
36291;SDS011;22327;51.208;6.418;2022-10-15T05:27:11;45.15;;;22.10;;
36291;SDS011;22327;51.208;6.418;2022-10-15T05:29:36;49.90;;;23.27;;
36291;SDS011;22327;51.208;6.418;2022-10-15T05:32:03;49.67;;;22.90;;
36291;SDS011;22327;51.208;6.418;2022-10-15T05:34:29;52.28;;;22.60;;
36291;SDS011;22327;51.208;6.418;2022-10-15T05:36:55;47.47;;;23.13;;
36291;SDS011;22327;51.208;6.418;2022-10-15T05:39:21;49.33;;;21.75;;
36291;SDS011;22327;51.208;6.418;2022-10-15T05:41:46;54.58;;;23.17;;
36291;SDS011;22327;51.208;6.418;2022-10-15T05:44:13;55.22;;;22.83;;
36291;SDS011;22327;51.208;6.418;2022-10-15T05:46:39;61.15;;;24.70;;
36291;SDS011;22327;51.208;6.418;2022-10-15T05:49:04;63.70;;;25.65;;
36291;SDS011;22327;51.208;6.418;2022-10-15T05:51:30;64.53;;;25.92;;
36291;SDS011;22327;51.208;6.418;2022-10-15T05:53:55;63.40;;;25.05;;
36291;SDS011;22327;51.208;6.418;2022-10-15T05:56:22;65.20;;;25.10;;
36291;SDS011;22327;51.208;6.418;2022-10-15T05:58:48;63.20;;;25.60;;
36291;SDS011;22327;51.208;6.418;2022-10-15T06:01:13;71.00;;;26.70;;
36291;SDS011;22327;51.208;6.418;2022-10-15T06:03:39;69.53;;;27.02;;
36291;SDS011;22327;51.208;6.418;2022-10-15T06:06:16;70.18;;;27.00;;
36291;SDS011;22327;51.208;6.418;2022-10-15T06:08:43;72.63;;;27.45;;
36291;SDS011;22327;51.208;6.418;2022-10-15T06:11:09;87.80;;;30.50;;
36291;SDS011;22327;51.208;6.418;2022-10-15T06:13:38;76.85;;;28.85;;
36291;SDS011;22327;51.208;6.418;2022-10-15T06:16:05;86.25;;;30.65;;
36291;SDS011;22327;51.208;6.418;2022-10-15T06:18:31;82.78;;;31.02;;
36291;SDS011;22327;51.208;6.418;2022-10-15T06:20:56;96.30;;;32.70;;
36291;SDS011;22327;51.208;6.418;2022-10-15T06:23:22;87.05;;;32.83;;
36291;SDS011;22327;51.208;6.418;2022-10-15T06:25:50;87.78;;;33.75;;
36291;SDS011;22327;51.208;6.418;2022-10-15T06:28:16;94.43;;;34.35;;
36291;SDS011;22327;51.208;6.418;2022-10-15T06:30:42;93.43;;;33.22;;
36291;SDS011;22327;51.208;6.418;2022-10-15T06:33:08;98.03;;;33.95;;
36291;SDS011;22327;51.208;6.418;2022-10-15T06:35:34;92.45;;;33.25;;
36291;SDS011;22327;51.208;6.418;2022-10-15T06:38:03;92.30;;;32.20;;
36291;SDS011;22327;51.208;6.418;2022-10-15T06:40:29;96.78;;;32.72;;
36291;SDS011;22327;51.208;6.418;2022-10-15T06:43:06;91.68;;;32.83;;
36291;SDS011;22327;51.208;6.418;2022-10-15T06:45:33;86.70;;;32.20;;
36291;SDS011;22327;51.208;6.418;2022-10-15T06:48:00;85.97;;;31.30;;
36291;SDS011;22327;51.208;6.418;2022-10-15T06:50:27;85.78;;;31.50;;
36291;SDS011;22327;51.208;6.418;2022-10-15T06:52:53;77.75;;;30.20;;
36291;SDS011;22327;51.208;6.418;2022-10-15T06:55:18;77.53;;;30.58;;
36291;SDS011;22327;51.208;6.418;2022-10-15T06:57:44;76.80;;;28.48;;
36291;SDS011;22327;51.208;6.418;2022-10-15T07:00:09;73.63;;;29.25;;
36291;SDS011;22327;51.208;6.418;2022-10-15T07:02:36;67.90;;;27.30;;
36291;SDS011;22327;51.208;6.418;2022-10-15T07:05:01;56.72;;;25.48;;
36291;SDS011;22327;51.208;6.418;2022-10-15T07:07:27;56.20;;;24.35;;
36291;SDS011;22327;51.208;6.418;2022-10-15T07:09:52;52.17;;;23.25;;
36291;SDS011;22327;51.208;6.418;2022-10-15T07:12:19;50.13;;;24.02;;
36291;SDS011;22327;51.208;6.418;2022-10-15T07:14:46;45.22;;;22.55;;
36291;SDS011;22327;51.208;6.418;2022-10-15T07:17:13;39.53;;;22.00;;
36291;SDS011;22327;51.208;6.418;2022-10-15T07:19:39;41.97;;;21.90;;
36291;SDS011;22327;51.208;6.418;2022-10-15T07:22:04;41.70;;;21.20;;
36291;SDS011;22327;51.208;6.418;2022-10-15T07:24:30;38.78;;;21.73;;
36291;SDS011;22327;51.208;6.418;2022-10-15T07:26:55;35.03;;;19.83;;
36291;SDS011;22327;51.208;6.418;2022-10-15T07:29:21;35.55;;;19.45;;
36291;SDS011;22327;51.208;6.418;2022-10-15T07:31:46;32.35;;;18.02;;
36291;SDS011;22327;51.208;6.418;2022-10-15T07:34:12;31.35;;;17.67;;
36291;SDS011;22327;51.208;6.418;2022-10-15T07:36:37;27.02;;;16.45;;
36291;SDS011;22327;51.208;6.418;2022-10-15T07:39:03;24.67;;;15.27;;
36291;SDS011;22327;51.208;6.418;2022-10-15T07:41:29;23.00;;;15.02;;
36291;SDS011;22327;51.208;6.418;2022-10-15T07:43:55;24.02;;;14.93;;
36291;SDS011;22327;51.208;6.418;2022-10-15T07:46:20;20.55;;;13.43;;
36291;SDS011;22327;51.208;6.418;2022-10-15T07:48:46;21.83;;;14.23;;
36291;SDS011;22327;51.208;6.418;2022-10-15T07:51:11;23.38;;;13.65;;
36291;SDS011;22327;51.208;6.418;2022-10-15T07:53:37;21.10;;;13.70;;
36291;SDS011;22327;51.208;6.418;2022-10-15T07:56:03;20.02;;;12.82;;
36291;SDS011;22327;51.208;6.418;2022-10-15T07:58:32;16.40;;;11.73;;
36291;SDS011;22327;51.208;6.418;2022-10-15T08:01:01;17.33;;;10.70;;
36291;SDS011;22327;51.208;6.418;2022-10-15T08:03:31;14.03;;;11.90;;
36291;SDS011;22327;51.208;6.418;2022-10-15T08:06:00;11.60;;;8.88;;
36291;SDS011;22327;51.208;6.418;2022-10-15T08:08:27;12.98;;;9.35;;
36291;SDS011;22327;51.208;6.418;2022-10-15T08:10:52;13.02;;;10.20;;
36291;SDS011;22327;51.208;6.418;2022-10-15T08:13:18;12.02;;;8.95;;
36291;SDS011;22327;51.208;6.418;2022-10-15T08:15:44;12.55;;;8.73;;
36291;SDS011;22327;51.208;6.418;2022-10-15T08:18:09;12.40;;;8.88;;
36291;SDS011;22327;51.208;6.418;2022-10-15T08:20:38;11.18;;;8.45;;
36291;SDS011;22327;51.208;6.418;2022-10-15T08:23:04;9.43;;;7.80;;
36291;SDS011;22327;51.208;6.418;2022-10-15T08:25:30;9.75;;;8.25;;
36291;SDS011;22327;51.208;6.418;2022-10-15T08:27:56;11.30;;;8.15;;
36291;SDS011;22327;51.208;6.418;2022-10-15T08:30:22;9.90;;;7.53;;
36291;SDS011;22327;51.208;6.418;2022-10-15T08:32:48;10.80;;;8.07;;
36291;SDS011;22327;51.208;6.418;2022-10-15T08:35:14;7.20;;;6.50;;
36291;SDS011;22327;51.208;6.418;2022-10-15T08:37:40;7.90;;;6.65;;
36291;SDS011;22327;51.208;6.418;2022-10-15T08:40:05;7.43;;;5.63;;
36291;SDS011;22327;51.208;6.418;2022-10-15T08:42:38;7.47;;;6.25;;
36291;SDS011;22327;51.208;6.418;2022-10-15T08:53:19;4.30;;;3.85;;
36291;SDS011;22327;51.208;6.418;2022-10-15T08:55:50;4.10;;;3.67;;
36291;SDS011;22327;51.208;6.418;2022-10-15T08:58:20;3.97;;;3.60;;
36291;SDS011;22327;51.208;6.418;2022-10-15T09:00:51;4.22;;;3.25;;
36291;SDS011;22327;51.208;6.418;2022-10-15T09:14:41;2.45;;;2.20;;
36291;SDS011;22327;51.208;6.418;2022-10-15T09:17:16;2.72;;;2.40;;
36291;SDS011;22327;51.208;6.418;2022-10-15T09:19:46;1.55;;;1.45;;
36291;SDS011;22327;51.208;6.418;2022-10-15T09:22:17;2.20;;;1.65;;
36291;SDS011;22327;51.208;6.418;2022-10-15T09:24:45;2.50;;;1.60;;
36291;SDS011;22327;51.208;6.418;2022-10-15T09:27:53;1.83;;;1.60;;
36291;SDS011;22327;51.208;6.418;2022-10-15T09:30:07;2.63;;;1.23;;
36291;SDS011;22327;51.208;6.418;2022-10-15T09:32:51;2.28;;;1.00;;
36291;SDS011;22327;51.208;6.418;2022-10-15T09:35:27;1.58;;;0.85;;
36291;SDS011;22327;51.208;6.418;2022-10-15T09:43:26;1.55;;;0.60;;
36291;SDS011;22327;51.208;6.418;2022-10-15T09:45:58;1.02;;;0.60;;
36291;SDS011;22327;51.208;6.418;2022-10-15T09:48:24;0.52;;;0.52;;
36291;SDS011;22327;51.208;6.418;2022-10-15T09:50:56;2.03;;;0.47;;
36291;SDS011;22327;51.208;6.418;2022-10-15T09:53:46;0.73;;;0.50;;
36291;SDS011;22327;51.208;6.418;2022-10-15T09:56:21;0.90;;;0.60;;
36291;SDS011;22327;51.208;6.418;2022-10-15T09:58:51;2.35;;;0.60;;
36291;SDS011;22327;51.208;6.418;2022-10-15T10:01:25;0.68;;;0.60;;
36291;SDS011;22327;51.208;6.418;2022-10-15T10:04:11;1.33;;;0.57;;
36291;SDS011;22327;51.208;6.418;2022-10-15T10:06:42;1.65;;;0.77;;
36291;SDS011;22327;51.208;6.418;2022-10-15T10:09:13;0.75;;;0.63;;
36291;SDS011;22327;51.208;6.418;2022-10-15T10:11:45;1.95;;;0.63;;
36291;SDS011;22327;51.208;6.418;2022-10-15T10:14:22;2.78;;;0.85;;
36291;SDS011;22327;51.208;6.418;2022-10-15T10:17:06;1.58;;;0.70;;
36291;SDS011;22327;51.208;6.418;2022-10-15T10:19:43;1.20;;;0.65;;
36291;SDS011;22327;51.208;6.418;2022-10-15T10:22:12;2.97;;;0.90;;
36291;SDS011;22327;51.208;6.418;2022-10-15T10:24:39;2.90;;;0.80;;
36291;SDS011;22327;51.208;6.418;2022-10-15T10:27:11;1.05;;;0.60;;
36291;SDS011;22327;51.208;6.418;2022-10-15T10:29:53;3.80;;;0.70;;
36291;SDS011;22327;51.208;6.418;2022-10-15T10:32:27;0.75;;;0.75;;
36291;SDS011;22327;51.208;6.418;2022-10-15T10:34:55;2.55;;;0.80;;
36291;SDS011;22327;51.208;6.418;2022-10-15T10:37:21;2.08;;;0.60;;
36291;SDS011;22327;51.208;6.418;2022-10-15T10:39:52;1.48;;;0.90;;
36291;SDS011;22327;51.208;6.418;2022-10-15T10:42:24;2.03;;;0.77;;
36291;SDS011;22327;51.208;6.418;2022-10-15T10:44:51;0.50;;;0.50;;
36291;SDS011;22327;51.208;6.418;2022-10-15T10:47:18;1.90;;;1.10;;
36291;SDS011;22327;51.208;6.418;2022-10-15T10:49:53;1.05;;;0.60;;
36291;SDS011;22327;51.208;6.418;2022-10-15T10:54:47;0.82;;;0.55;;
36291;SDS011;22327;51.208;6.418;2022-10-15T10:57:19;2.60;;;0.60;;
36291;SDS011;22327;51.208;6.418;2022-10-15T10:59:58;1.67;;;0.63;;
36291;SDS011;22327;51.208;6.418;2022-10-15T11:02:26;1.10;;;0.80;;
36291;SDS011;22327;51.208;6.418;2022-10-15T11:04:52;0.55;;;0.55;;
36291;SDS011;22327;51.208;6.418;2022-10-15T11:07:22;0.80;;;0.55;;
36291;SDS011;22327;51.208;6.418;2022-10-15T11:10:21;1.23;;;0.68;;
36291;SDS011;22327;51.208;6.418;2022-10-15T11:15:30;1.15;;;0.77;;
36291;SDS011;22327;51.208;6.418;2022-10-15T11:23:39;2.65;;;1.58;;
36291;SDS011;22327;51.208;6.418;2022-10-15T11:31:36;3.35;;;1.75;;
36291;SDS011;22327;51.208;6.418;2022-10-15T11:37:00;2.20;;;0.80;;
36291;SDS011;22327;51.208;6.418;2022-10-15T11:39:48;3.65;;;1.92;;
36291;SDS011;22327;51.208;6.418;2022-10-15T11:42:29;4.22;;;1.40;;
36291;SDS011;22327;51.208;6.418;2022-10-15T11:45:08;5.03;;;1.48;;
36291;SDS011;22327;51.208;6.418;2022-10-15T11:47:51;2.40;;;1.27;;
36291;SDS011;22327;51.208;6.418;2022-10-15T11:53:22;3.17;;;1.27;;
36291;SDS011;22327;51.208;6.418;2022-10-15T11:55:51;3.75;;;1.08;;
36291;SDS011;22327;51.208;6.418;2022-10-15T11:58:30;2.40;;;1.50;;
36291;SDS011;22327;51.208;6.418;2022-10-15T12:03:57;1.15;;;0.50;;
36291;SDS011;22327;51.208;6.418;2022-10-15T12:06:30;0.60;;;0.60;;
36291;SDS011;22327;51.208;6.418;2022-10-15T12:09:01;0.50;;;0.50;;
36291;SDS011;22327;51.208;6.418;2022-10-15T12:11:40;0.85;;;0.50;;
36291;SDS011;22327;51.208;6.418;2022-10-15T12:14:24;0.38;;;0.25;;
36291;SDS011;22327;51.208;6.418;2022-10-15T12:19:40;0.50;;;0.38;;
36291;SDS011;22327;51.208;6.418;2022-10-15T12:22:08;1.45;;;0.22;;
36291;SDS011;22327;51.208;6.418;2022-10-15T12:29:44;1.10;;;0.30;;
36291;SDS011;22327;51.208;6.418;2022-10-15T12:32:54;1.15;;;0.30;;
36291;SDS011;22327;51.208;6.418;2022-10-15T12:35:06;0.50;;;0.40;;
36291;SDS011;22327;51.208;6.418;2022-10-15T12:37:45;0.70;;;0.25;;
36291;SDS011;22327;51.208;6.418;2022-10-15T12:42:57;0.88;;;0.30;;
36291;SDS011;22327;51.208;6.418;2022-10-15T12:45:29;0.43;;;0.30;;
36291;SDS011;22327;51.208;6.418;2022-10-15T12:50:31;0.45;;;0.40;;
36291;SDS011;22327;51.208;6.418;2022-10-15T12:53:02;1.27;;;0.80;;
36291;SDS011;22327;51.208;6.418;2022-10-15T13:01:03;0.60;;;0.60;;
36291;SDS011;22327;51.208;6.418;2022-10-15T13:03:35;0.40;;;0.40;;
36291;SDS011;22327;51.208;6.418;2022-10-15T13:08:44;1.05;;;0.95;;
36291;SDS011;22327;51.208;6.418;2022-10-15T13:11:29;0.70;;;0.57;;
36291;SDS011;22327;51.208;6.418;2022-10-15T13:13:57;1.55;;;0.60;;
36291;SDS011;22327;51.208;6.418;2022-10-15T13:16:25;0.40;;;0.40;;
36291;SDS011;22327;51.208;6.418;2022-10-15T13:18:52;1.20;;;0.50;;
36291;SDS011;22327;51.208;6.418;2022-10-15T13:21:20;0.50;;;0.40;;
36291;SDS011;22327;51.208;6.418;2022-10-15T13:23:47;1.08;;;0.57;;
36291;SDS011;22327;51.208;6.418;2022-10-15T13:26:23;1.30;;;1.00;;
36291;SDS011;22327;51.208;6.418;2022-10-15T13:28:55;1.00;;;0.60;;
36291;SDS011;22327;51.208;6.418;2022-10-15T13:31:23;3.47;;;2.55;;
36291;SDS011;22327;51.208;6.418;2022-10-15T13:33:53;0.60;;;0.57;;
36291;SDS011;22327;51.208;6.418;2022-10-15T13:36:32;0.43;;;0.40;;
36291;SDS011;22327;51.208;6.418;2022-10-15T13:39:00;2.05;;;1.20;;
36291;SDS011;22327;51.208;6.418;2022-10-15T13:41:30;1.70;;;0.60;;
36291;SDS011;22327;51.208;6.418;2022-10-15T13:43:59;0.47;;;0.47;;
36291;SDS011;22327;51.208;6.418;2022-10-15T13:46:27;0.40;;;0.32;;
36291;SDS011;22327;51.208;6.418;2022-10-15T13:48:58;1.35;;;0.50;;
36291;SDS011;22327;51.208;6.418;2022-10-15T13:51:32;1.13;;;0.60;;
36291;SDS011;22327;51.208;6.418;2022-10-15T13:54:01;1.02;;;0.57;;
36291;SDS011;22327;51.208;6.418;2022-10-15T13:56:33;1.92;;;0.50;;
36291;SDS011;22327;51.208;6.418;2022-10-15T13:58:59;2.38;;;0.75;;
36291;SDS011;22327;51.208;6.418;2022-10-15T14:01:26;0.93;;;0.70;;
36291;SDS011;22327;51.208;6.418;2022-10-15T14:06:30;1.15;;;0.50;;
36291;SDS011;22327;51.208;6.418;2022-10-15T14:11:42;1.95;;;0.68;;
36291;SDS011;22327;51.208;6.418;2022-10-15T14:16:57;2.67;;;0.75;;
36291;SDS011;22327;51.208;6.418;2022-10-15T14:19:24;3.10;;;1.00;;
36291;SDS011;22327;51.208;6.418;2022-10-15T14:21:53;1.20;;;0.85;;
36291;SDS011;22327;51.208;6.418;2022-10-15T14:24:32;3.55;;;1.23;;
36291;SDS011;22327;51.208;6.418;2022-10-15T14:27:01;0.50;;;0.50;;
36291;SDS011;22327;51.208;6.418;2022-10-15T14:29:33;0.90;;;0.77;;
36291;SDS011;22327;51.208;6.418;2022-10-15T14:32:01;0.90;;;0.70;;
36291;SDS011;22327;51.208;6.418;2022-10-15T14:34:41;1.25;;;0.73;;
36291;SDS011;22327;51.208;6.418;2022-10-15T14:45:40;1.07;;;0.80;;
36291;SDS011;22327;51.208;6.418;2022-10-15T14:48:13;0.70;;;0.70;;
36291;SDS011;22327;51.208;6.418;2022-10-15T14:50:50;1.20;;;1.00;;
36291;SDS011;22327;51.208;6.418;2022-10-15T14:53:23;0.75;;;0.60;;
36291;SDS011;22327;51.208;6.418;2022-10-15T14:55:52;0.82;;;0.82;;
36291;SDS011;22327;51.208;6.418;2022-10-15T14:58:21;1.20;;;0.95;;
36291;SDS011;22327;51.208;6.418;2022-10-15T15:00:53;1.35;;;1.25;;
36291;SDS011;22327;51.208;6.418;2022-10-15T15:03:28;1.70;;;1.30;;
36291;SDS011;22327;51.208;6.418;2022-10-15T15:06:02;1.52;;;1.30;;
36291;SDS011;22327;51.208;6.418;2022-10-15T15:08:27;1.30;;;1.20;;
36291;SDS011;22327;51.208;6.418;2022-10-15T15:10:54;5.90;;;1.30;;
36291;SDS011;22327;51.208;6.418;2022-10-15T15:13:25;1.10;;;1.00;;
36291;SDS011;22327;51.208;6.418;2022-10-15T15:15:52;1.00;;;0.90;;
36291;SDS011;22327;51.208;6.418;2022-10-15T15:18:18;1.88;;;1.10;;
36291;SDS011;22327;51.208;6.418;2022-10-15T15:20:44;1.20;;;1.10;;
36291;SDS011;22327;51.208;6.418;2022-10-15T15:23:17;1.63;;;1.35;;
36291;SDS011;22327;51.208;6.418;2022-10-15T15:25:44;1.60;;;1.50;;
36291;SDS011;22327;51.208;6.418;2022-10-15T15:28:16;2.63;;;1.45;;
36291;SDS011;22327;51.208;6.418;2022-10-15T15:30:44;1.95;;;1.20;;
36291;SDS011;22327;51.208;6.418;2022-10-15T15:33:14;3.78;;;1.25;;
36291;SDS011;22327;51.208;6.418;2022-10-15T15:35:41;2.70;;;1.15;;
36291;SDS011;22327;51.208;6.418;2022-10-15T15:38:17;1.90;;;1.10;;
36291;SDS011;22327;51.208;6.418;2022-10-15T15:40:48;2.45;;;1.50;;
36291;SDS011;22327;51.208;6.418;2022-10-15T15:43:15;2.83;;;1.55;;
36291;SDS011;22327;51.208;6.418;2022-10-15T15:45:43;1.27;;;1.17;;
36291;SDS011;22327;51.208;6.418;2022-10-15T15:48:10;1.58;;;1.17;;
36291;SDS011;22327;51.208;6.418;2022-10-15T15:50:35;1.95;;;1.50;;
36291;SDS011;22327;51.208;6.418;2022-10-15T15:53:02;1.50;;;1.40;;
36291;SDS011;22327;51.208;6.418;2022-10-15T15:55:28;1.65;;;1.55;;
36291;SDS011;22327;51.208;6.418;2022-10-15T15:57:54;2.30;;;1.70;;
36291;SDS011;22327;51.208;6.418;2022-10-15T16:00:20;1.92;;;1.70;;
36291;SDS011;22327;51.208;6.418;2022-10-15T16:02:45;3.90;;;1.70;;
36291;SDS011;22327;51.208;6.418;2022-10-15T16:05:13;3.58;;;1.88;;
36291;SDS011;22327;51.208;6.418;2022-10-15T16:07:39;2.85;;;1.55;;
36291;SDS011;22327;51.208;6.418;2022-10-15T16:10:06;1.70;;;1.52;;
36291;SDS011;22327;51.208;6.418;2022-10-15T16:12:35;3.63;;;1.60;;
36291;SDS011;22327;51.208;6.418;2022-10-15T16:15:02;2.53;;;2.05;;
36291;SDS011;22327;51.208;6.418;2022-10-15T16:17:27;2.20;;;1.92;;
36291;SDS011;22327;51.208;6.418;2022-10-15T16:19:53;2.70;;;1.80;;
36291;SDS011;22327;51.208;6.418;2022-10-15T16:22:18;2.05;;;1.85;;
36291;SDS011;22327;51.208;6.418;2022-10-15T16:24:44;2.42;;;1.80;;
36291;SDS011;22327;51.208;6.418;2022-10-15T16:27:09;2.42;;;2.13;;
36291;SDS011;22327;51.208;6.418;2022-10-15T16:29:35;2.55;;;2.08;;
36291;SDS011;22327;51.208;6.418;2022-10-15T16:32:01;4.32;;;2.40;;
36291;SDS011;22327;51.208;6.418;2022-10-15T16:34:26;3.58;;;2.10;;
36291;SDS011;22327;51.208;6.418;2022-10-15T16:36:52;3.08;;;2.00;;
36291;SDS011;22327;51.208;6.418;2022-10-15T16:39:17;3.95;;;3.35;;